Time;durP1;ratioP1;P1;durP2;ratioP2;P2;SDS_P1;SDS_P2;PMS_P1;PMS_P2;Temp;Humidity;BMP_temperature;BMP_pressure;BME280_temperature;BME280_humidity;BME280_pressure;Samples;Min_cycle;Max_cycle;Signal;HPM_P1;HPM_P2
2023/08/06 00:01:01;;;;;;;3.00;1.80;;;;;;;19.19;97.39;98988.69;131070;1254;107510;-78
2023/08/06 00:04:26;;;;;;;6.90;2.50;;;;;;;19.13;98.64;98986.84;131088;1251;107554;-79
2023/08/06 00:07:32;;;;;;;1.80;1.50;;;;;;;19.10;97.54;98995.21;131017;1251;107367;-78
2023/08/06 00:10:37;;;;;;;1.60;1.30;;;;;;;19.11;97.44;98981.64;131010;1266;107438;-78
2023/08/06 00:13:43;;;;;;;1.90;1.70;;;;;;;19.11;98.40;98947.27;131045;1253;107242;-78
2023/08/06 00:16:48;;;;;;;2.10;1.60;;;;;;;19.05;98.99;98925.89;131115;1253;107505;-78
2023/08/06 00:19:54;;;;;;;2.00;1.60;;;;;;;18.98;99.85;98904.46;130988;1256;107423;-78
2023/08/06 00:22:59;;;;;;;1.50;1.40;;;;;;;18.95;99.12;98893.05;131002;1253;107538;-78
2023/08/06 00:26:05;;;;;;;1.60;1.30;;;;;;;19.00;98.14;98889.41;130989;1256;107578;-78
2023/08/06 00:29:10;;;;;;;1.50;1.30;;;;;;;19.06;98.91;98885.20;131080;1253;107206;-78
2023/08/06 00:32:16;;;;;;;1.70;1.60;;;;;;;19.07;98.11;98878.13;131045;1257;107376;-78
2023/08/06 00:35:21;;;;;;;2.20;2.00;;;;;;;19.08;99.33;98887.49;131004;1251;108800;-78
2023/08/06 00:38:27;;;;;;;2.00;1.80;;;;;;;19.03;98.89;98899.11;130973;1253;107498;-79
2023/08/06 00:41:32;;;;;;;2.30;2.00;;;;;;;19.04;98.60;98888.14;131101;1251;107641;-79
2023/08/06 00:44:39;;;;;;;2.70;2.20;;;;;;;19.03;99.10;98884.39;131040;1253;107527;-78
2023/08/06 00:47:45;;;;;;;2.40;2.10;;;;;;;19.07;98.57;98884.02;131050;1254;107374;-78
2023/08/06 00:50:51;;;;;;;3.20;1.80;;;;;;;19.10;98.34;98880.95;130812;1251;164959;-78
2023/08/06 00:53:57;;;;;;;3.10;2.40;;;;;;;19.13;99.06;98878.09;131072;1264;106312;-78
2023/08/06 00:57:04;;;;;;;2.70;2.50;;;;;;;19.14;98.81;98885.08;130992;1256;107200;-78
2023/08/06 01:00:12;;;;;;;3.00;2.60;;;;;;;19.18;98.55;98881.69;130991;1253;107492;-78
2023/08/06 01:03:17;;;;;;;3.00;2.70;;;;;;;19.21;98.52;98868.67;131171;1254;107614;-79
2023/08/06 01:06:36;;;;;;;3.90;2.60;;;;;;;19.26;98.86;98861.33;130976;1256;106682;-79
2023/08/06 01:09:51;;;;;;;3.40;2.20;;;;;;;19.27;98.47;98868.64;130918;1256;107441;-79
2023/08/06 01:13:09;;;;;;;2.80;2.60;;;;;;;19.34;98.21;98875.36;131016;1257;106529;-78
2023/08/06 01:16:18;;;;;;;3.00;2.70;;;;;;;19.40;98.58;98868.55;131085;1251;107566;-78
2023/08/06 01:19:23;;;;;;;4.00;3.20;;;;;;;19.39;98.22;98856.84;130979;1257;108204;-79
2023/08/06 01:22:29;;;;;;;3.40;3.00;;;;;;;19.39;98.12;98841.65;131007;1251;106992;-78
2023/08/06 01:25:40;;;;;;;3.20;2.90;;;;;;;19.44;98.02;98839.08;131021;1257;107395;-78
2023/08/06 01:28:56;;;;;;;4.50;3.80;;;;;;;19.50;97.84;98835.48;131004;1253;107356;-78
2023/08/06 01:32:02;;;;;;;4.40;3.40;;;;;;;19.54;97.81;98831.92;130957;1256;107404;-78
2023/08/06 01:35:11;;;;;;;3.50;3.10;;;;;;;19.58;98.10;98837.95;131024;1257;106498;-78
2023/08/06 01:38:17;;;;;;;5.40;3.60;;;;;;;19.60;98.04;98838.02;131036;1257;107586;-78
2023/08/06 01:41:22;;;;;;;4.70;4.20;;;;;;;19.58;98.37;98834.16;131007;1251;106246;-78
2023/08/06 01:44:28;;;;;;;3.80;3.40;;;;;;;19.55;98.61;98837.73;130934;1256;108629;-78
2023/08/06 01:47:33;;;;;;;3.70;3.30;;;;;;;19.57;98.37;98839.11;130986;1265;107602;-78
2023/08/06 01:50:39;;;;;;;4.00;3.60;;;;;;;19.63;98.11;98843.81;130978;1264;107407;-78
2023/08/06 01:53:44;;;;;;;4.50;4.10;;;;;;;19.69;98.00;98845.67;130925;1253;107650;-78
2023/08/06 01:56:51;;;;;;;5.90;4.60;;;;;;;19.72;97.98;98836.59;131047;1253;107324;-78
2023/08/06 01:59:56;;;;;;;3.90;3.40;;;;;;;19.74;97.87;98843.63;130932;1261;107519;-78
2023/08/06 02:03:03;;;;;;;3.90;3.50;;;;;;;19.78;97.84;98875.15;131064;1253;107463;-78
2023/08/06 02:06:08;;;;;;;3.70;3.40;;;;;;;19.81;97.77;98901.44;131111;1254;107512;-78
2023/08/06 02:09:14;;;;;;;4.40;4.00;;;;;;;19.83;97.79;98913.33;130981;1254;107493;-78
2023/08/06 02:12:19;;;;;;;4.70;4.00;;;;;;;19.86;97.77;98923.39;130990;1254;107623;-79
2023/08/06 02:15:25;;;;;;;4.20;3.90;;;;;;;19.90;97.67;98938.70;130958;1256;107530;-79
2023/08/06 02:18:30;;;;;;;6.20;4.90;;;;;;;19.92;97.63;98884.33;131054;1253;107486;-78
2023/08/06 02:21:36;;;;;;;6.20;5.50;;;;;;;19.83;98.36;98808.95;130993;1253;107295;-79
2023/08/06 02:24:42;;;;;;;5.50;4.90;;;;;;;19.63;99.52;98758.25;130969;1256;107595;-78
2023/08/06 02:27:49;;;;;;;5.60;5.10;;;;;;;19.44;100.00;98619.91;131055;1250;107334;-78
2023/08/06 02:30:55;;;;;;;4.80;4.00;;;;;;;19.25;100.00;98459.80;131014;1256;106566;-78
2023/08/06 02:34:00;;;;;;;5.70;5.10;;;;;;;19.18;100.00;98436.63;131052;1253;107250;-78
2023/08/06 02:37:06;;;;;;;6.20;5.20;;;;;;;19.17;100.00;98505.46;131113;1257;109171;-78
2023/08/06 02:40:13;;;;;;;7.00;6.30;;;;;;;19.21;100.00;98599.81;131053;1251;107531;-78
2023/08/06 02:43:18;;;;;;;8.70;5.70;;;;;;;19.20;100.00;98644.15;130984;1263;107490;-78
2023/08/06 02:46:24;;;;;;;7.60;6.60;;;;;;;19.27;100.00;98675.55;131024;1256;107528;-78
2023/08/06 02:49:30;;;;;;;7.30;6.50;;;;;;;19.35;100.00;98680.05;131094;1253;108662;-79
2023/08/06 02:52:38;;;;;;;7.80;6.90;;;;;;;19.44;100.00;98687.06;131003;1255;108684;-78
2023/08/06 02:55:49;;;;;;;9.90;7.30;;;;;;;19.51;100.00;98663.70;131011;1254;108743;-78
2023/08/06 02:58:56;;;;;;;9.10;7.50;;;;;;;19.53;99.99;98628.35;131120;1250;107227;-78
2023/08/06 03:02:18;;;;;;;9.30;7.30;;;;;;;19.55;100.00;98604.20;130950;1257;108650;-79
2023/08/06 03:05:38;;;;;;;8.00;6.90;;;;;;;19.58;99.97;98592.92;131046;1263;107544;-78
2023/08/06 03:08:44;;;;;;;8.40;7.50;;;;;;;19.60;99.91;98578.86;131053;1254;107561;-78
2023/08/06 03:11:50;;;;;;;8.40;7.50;;;;;;;19.62;99.94;98578.67;130973;1251;107480;-78
2023/08/06 03:14:56;;;;;;;9.10;7.20;;;;;;;19.61;99.93;98577.91;130976;1261;107458;-78
2023/08/06 03:18:02;;;;;;;9.50;8.00;;;;;;;19.59;99.99;98584.33;131111;1253;107539;-78
2023/08/06 03:21:08;;;;;;;10.50;8.40;;;;;;;19.57;100.00;98581.94;131075;1256;107336;-78
2023/08/06 03:24:15;;;;;;;8.90;7.90;;;;;;;19.57;100.00;98565.42;131061;1253;107418;-79
2023/08/06 03:27:21;;;;;;;9.30;8.40;;;;;;;19.56;100.00;98557.30;131002;1264;107455;-78
2023/08/06 03:30:28;;;;;;;9.80;8.80;;;;;;;19.54;100.00;98552.28;131072;1250;107452;-79
2023/08/06 03:33:34;;;;;;;10.10;9.10;;;;;;;19.53;100.00;98552.88;131123;1260;107411;-79
2023/08/06 03:36:40;;;;;;;12.20;10.20;;;;;;;19.54;100.00;98551.48;130994;1264;108615;-78
2023/08/06 03:39:46;;;;;;;11.40;9.90;;;;;;;19.56;100.00;98542.25;131055;1254;107511;-79
2023/08/06 03:42:51;;;;;;;12.60;9.40;;;;;;;19.55;100.00;98532.99;130943;1256;107448;-79
2023/08/06 03:45:57;;;;;;;11.80;10.20;;;;;;;19.55;100.00;98526.16;131034;1257;107210;-78
2023/08/06 03:49:03;;;;;;;10.80;9.70;;;;;;;19.57;100.00;98524.35;131006;1263;107429;-78
2023/08/06 03:52:09;;;;;;;10.10;9.10;;;;;;;19.61;100.00;98525.47;131036;1256;107590;-78
2023/08/06 03:55:15;;;;;;;10.20;9.00;;;;;;;19.60;100.00;98520.70;131081;1257;107899;-78
2023/08/06 03:58:21;;;;;;;10.70;8.70;;;;;;;19.57;100.00;98519.60;131089;1253;107575;-78
2023/08/06 04:01:26;;;;;;;10.90;9.70;;;;;;;19.60;100.00;98521.52;131003;1256;107499;-79
2023/08/06 04:04:32;;;;;;;10.00;9.00;;;;;;;19.64;100.00;98517.71;130999;1256;107465;-78
2023/08/06 04:07:38;;;;;;;12.20;9.10;;;;;;;19.67;100.00;98514.44;131006;1254;105900;-78
2023/08/06 04:10:43;;;;;;;11.40;9.70;;;;;;;19.68;100.00;98514.23;131201;1257;107499;-78
2023/08/06 04:13:49;;;;;;;11.00;9.80;;;;;;;19.70;100.00;98518.64;130998;1254;107537;-78
2023/08/06 04:16:54;;;;;;;10.90;9.40;;;;;;;19.71;100.00;98528.93;131091;1251;107553;-78
2023/08/06 04:20:00;;;;;;;10.60;9.00;;;;;;;19.76;100.00;98531.34;130996;1261;105718;-78
2023/08/06 04:23:09;;;;;;;10.80;8.40;;;;;;;19.80;100.00;98530.79;131069;1254;107191;-78
2023/08/06 04:26:15;;;;;;;9.70;8.50;;;;;;;19.84;100.00;98526.97;131093;1257;107509;-78
2023/08/06 04:29:20;;;;;;;9.40;8.40;;;;;;;19.84;100.00;98515.19;131038;1263;107584;-78
2023/08/06 04:32:26;;;;;;;9.90;8.90;;;;;;;19.86;100.00;98500.86;131088;1260;107553;-78
2023/08/06 04:35:32;;;;;;;10.50;8.50;;;;;;;19.86;100.00;98493.93;131044;1256;108779;-78
2023/08/06 04:38:38;;;;;;;9.70;8.40;;;;;;;19.89;100.00;98484.70;131098;1253;107511;-78
2023/08/06 04:41:44;;;;;;;10.10;9.00;;;;;;;19.95;100.00;98480.80;131171;1264;107502;-78
2023/08/06 04:44:50;;;;;;;10.00;8.20;;;;;;;19.97;100.00;98473.61;131132;1251;105637;-78
2023/08/06 04:47:55;;;;;;;11.00;8.70;;;;;;;20.00;100.00;98468.33;131043;1254;107413;-78
2023/08/06 04:51:01;;;;;;;8.70;7.70;;;;;;;19.99;100.00;98464.42;131024;1261;108653;-79
2023/08/06 04:54:06;;;;;;;10.70;8.70;;;;;;;20.02;100.00;98458.55;131043;1254;107291;-79
2023/08/06 04:57:12;;;;;;;10.80;8.10;;;;;;;20.08;100.00;98459.45;130993;1254;108567;-78
2023/08/06 05:00:18;;;;;;;9.80;8.50;;;;;;;20.09;100.00;98457.56;131045;1257;107540;-78
2023/08/06 05:03:23;;;;;;;9.80;7.90;;;;;;;20.14;100.00;98460.53;131043;1251;106571;-80
2023/08/06 05:06:29;;;;;;;11.50;9.10;;;;;;;20.19;100.00;98457.65;131044;1263;107645;-79
2023/08/06 05:09:34;;;;;;;11.50;8.90;;;;;;;20.23;100.00;98458.75;131010;1257;106756;-78
2023/08/06 05:12:40;;;;;;;9.60;8.40;;;;;;;20.24;99.99;98463.69;130974;1261;107636;-78
2023/08/06 05:15:46;;;;;;;10.30;9.20;;;;;;;20.25;99.96;98456.71;131004;1264;108678;-78
2023/08/06 05:18:51;;;;;;;10.50;9.30;;;;;;;20.26;99.97;98454.13;131059;1253;107347;-79
2023/08/06 05:21:57;;;;;;;10.30;8.80;;;;;;;20.31;100.00;98452.63;131026;1264;107190;-79
2023/08/06 05:25:03;;;;;;;13.40;8.70;;;;;;;20.31;99.97;98450.69;131052;1257;106152;-78
2023/08/06 05:28:08;;;;;;;12.60;9.60;;;;;;;20.33;99.97;98444.85;131063;1257;107376;-78
2023/08/06 05:31:14;;;;;;;10.70;9.40;;;;;;;20.36;100.00;98439.61;131024;1256;107219;-78
2023/08/06 05:34:20;;;;;;;10.10;8.70;;;;;;;20.42;99.92;98444.95;130969;1265;107596;-78
2023/08/06 05:37:25;;;;;;;11.10;9.10;;;;;;;20.47;99.87;98440.81;131055;1254;106688;-79
2023/08/06 05:40:31;;;;;;;10.10;9.10;;;;;;;20.51;99.80;98429.57;131037;1255;107226;-79
2023/08/06 05:43:36;;;;;;;10.00;9.00;;;;;;;20.56;99.85;98428.01;131093;1254;107543;-78
2023/08/06 05:46:42;;;;;;;12.40;9.00;;;;;;;20.61;99.80;98432.30;131027;1263;107622;-78
2023/08/06 05:49:47;;;;;;;12.00;8.70;;;;;;;20.64;99.74;98431.62;131028;1254;107167;-78
2023/08/06 05:52:53;;;;;;;11.00;9.60;;;;;;;20.68;99.74;98427.78;131029;1253;107624;-79
2023/08/06 05:55:58;;;;;;;11.20;9.80;;;;;;;20.72;99.76;98428.08;131083;1253;107518;-79
2023/08/06 05:59:04;;;;;;;10.50;9.40;;;;;;;20.75;99.63;98435.62;131078;1251;107554;-79
2023/08/06 06:02:09;;;;;;;10.10;9.00;;;;;;;20.78;99.68;98430.77;131083;1263;107539;-79
2023/08/06 06:05:15;;;;;;;12.20;10.60;;;;;;;20.83;99.63;98425.79;133445;1251;107508;-79
2023/08/06 06:08:21;;;;;;;11.40;10.20;;;;;;;20.88;99.44;98413.66;131339;1249;107561;-78
2023/08/06 06:11:26;;;;;;;11.00;9.90;;;;;;;20.93;99.60;98409.73;131082;1253;107576;-79
2023/08/06 06:14:32;;;;;;;9.50;8.50;;;;;;;21.00;99.42;98401.34;131325;1253;105675;-79
2023/08/06 06:17:37;;;;;;;11.20;9.30;;;;;;;21.11;99.40;98400.71;131114;1258;106663;-78
2023/08/06 06:20:43;;;;;;;10.80;9.60;;;;;;;21.22;99.31;98397.27;131076;1254;107631;-78
2023/08/06 06:23:48;;;;;;;10.20;8.70;;;;;;;21.30;99.30;98393.54;130970;1254;107463;-78
2023/08/06 06:26:54;;;;;;;11.90;9.30;;;;;;;21.37;99.06;98389.74;131022;1254;107525;-79
2023/08/06 06:29:59;;;;;;;12.70;9.70;;;;;;;21.44;98.88;98383.75;131017;1263;107554;-79
2023/08/06 06:33:05;;;;;;;11.30;10.10;;;;;;;21.49;98.86;98376.11;131059;1254;107575;-79
2023/08/06 06:36:10;;;;;;;10.90;9.80;;;;;;;21.53;98.73;98373.45;131196;1254;107465;-79
2023/08/06 06:39:16;;;;;;;10.50;9.00;;;;;;;21.59;98.44;98362.55;131054;1261;107368;-78
2023/08/06 06:42:22;;;;;;;10.70;8.40;;;;;;;21.65;98.37;98351.37;130993;1263;107632;-75
2023/08/06 06:45:29;;;;;;;11.10;10.00;;;;;;;21.76;98.44;98344.24;131017;1251;107513;-74
2023/08/06 06:48:35;;;;;;;11.60;9.20;;;;;;;21.85;98.31;98345.59;131223;1255;108433;-74
2023/08/06 06:51:40;;;;;;;11.40;10.30;;;;;;;21.92;98.05;98349.39;131198;1253;107522;-74
2023/08/06 06:54:46;;;;;;;12.30;10.80;;;;;;;21.97;97.86;98347.30;131091;1254;107727;-74
2023/08/06 06:57:51;;;;;;;11.20;9.50;;;;;;;21.96;97.73;98345.84;131125;1251;110364;-74
2023/08/06 07:00:57;;;;;;;12.80;10.00;;;;;;;21.95;97.86;98342.05;131045;1251;107445;-74
2023/08/06 07:04:04;;;;;;;15.00;11.60;;;;;;;22.03;97.91;98341.42;131236;1251;107536;-74
2023/08/06 07:07:10;;;;;;;11.80;10.30;;;;;;;22.14;97.85;98337.44;131185;1261;107241;-74
2023/08/06 07:10:15;;;;;;;12.30;11.10;;;;;;;22.21;97.79;98326.23;131063;1251;109345;-74
2023/08/06 07:13:22;;;;;;;13.40;11.90;;;;;;;22.26;97.62;98323.08;131148;1252;107517;-75
2023/08/06 07:16:29;;;;;;;12.30;11.00;;;;;;;22.26;97.33;98320.05;131067;1263;107250;-75
2023/08/06 07:19:34;;;;;;;13.40;12.00;;;;;;;22.30;97.42;98317.69;131120;1253;107357;-75
2023/08/06 07:22:40;;;;;;;14.90;11.70;;;;;;;22.40;97.00;98318.85;131067;1263;107487;-76
2023/08/06 07:25:46;;;;;;;14.70;13.20;;;;;;;22.45;97.09;98318.62;131092;1251;107273;-76
2023/08/06 07:28:52;;;;;;;13.70;12.20;;;;;;;22.55;97.25;98319.50;131087;1254;107575;-76
2023/08/06 07:31:57;;;;;;;15.90;13.50;;;;;;;22.62;97.06;98313.97;130994;1251;107486;-75
2023/08/06 07:35:04;;;;;;;14.50;13.00;;;;;;;22.67;96.91;98310.56;131101;1254;106084;-76
2023/08/06 07:38:09;;;;;;;17.40;14.40;;;;;;;22.73;96.54;98310.05;131023;1257;107327;-76
2023/08/06 07:41:15;;;;;;;17.00;14.40;;;;;;;22.80;96.39;98315.08;131202;1254;107410;-74
2023/08/06 07:44:21;;;;;;;17.30;13.20;;;;;;;22.86;96.34;98315.42;131091;1254;108839;-76
2023/08/06 07:47:26;;;;;;;14.00;12.50;;;;;;;23.00;96.57;98312.30;131045;1263;107513;-76
2023/08/06 07:50:32;;;;;;;15.80;13.60;;;;;;;23.05;96.00;98314.07;131062;1255;105907;-75
2023/08/06 07:53:38;;;;;;;17.60;15.80;;;;;;;23.07;95.94;98320.42;131048;1254;106248;-75
2023/08/06 07:56:43;;;;;;;18.80;16.80;;;;;;;23.06;95.73;98321.96;131093;1251;107457;-75
2023/08/06 07:59:49;;;;;;;17.40;15.30;;;;;;;23.01;95.78;98320.72;131092;1251;106918;-75
2023/08/06 08:02:54;;;;;;;17.60;15.20;;;;;;;23.02;95.69;98317.13;131134;1254;107492;-75
2023/08/06 08:05:59;;;;;;;18.50;16.60;;;;;;;23.13;95.77;98312.51;131070;1254;107452;-75
2023/08/06 08:09:05;;;;;;;20.70;17.90;;;;;;;23.27;95.27;98309.36;131104;1251;107551;-75
2023/08/06 08:12:11;;;;;;;24.00;20.70;;;;;;;23.35;95.00;98304.94;130974;1263;107484;-75
2023/08/06 08:15:17;;;;;;;20.30;17.30;;;;;;;23.44;95.19;98304.91;131083;1251;107516;-73
2023/08/06 08:18:22;;;;;;;20.80;17.80;;;;;;;23.53;94.75;98303.84;131039;1254;107534;-75
2023/08/06 08:21:28;;;;;;;20.70;17.30;;;;;;;23.56;94.23;98301.81;131094;1254;107356;-75
2023/08/06 08:24:34;;;;;;;20.80;17.20;;;;;;;23.60;94.30;98308.91;131024;1264;107394;-73
2023/08/06 08:27:39;;;;;;;20.20;17.50;;;;;;;23.71;94.40;98302.44;131167;1255;107352;-75
2023/08/06 08:30:45;;;;;;;19.90;16.30;;;;;;;23.84;94.02;98299.66;131030;1255;107591;-75
2023/08/06 08:33:50;;;;;;;18.80;16.70;;;;;;;23.86;93.53;98304.88;131130;1254;107441;-74
2023/08/06 08:36:56;;;;;;;20.20;16.80;;;;;;;23.83;93.48;98301.05;131161;1249;107773;-75
2023/08/06 08:40:03;;;;;;;18.30;16.30;;;;;;;23.85;93.32;98303.63;131078;1254;106106;-75
2023/08/06 08:43:09;;;;;;;22.30;18.50;;;;;;;23.85;93.22;98298.39;131109;1253;107440;-74
2023/08/06 08:46:18;;;;;;;23.30;18.00;;;;;;;23.88;93.19;98292.16;131332;1251;108449;-73
2023/08/06 08:49:24;;;;;;;21.30;16.80;;;;;;;23.86;92.95;98293.16;131021;1254;107527;-76
2023/08/06 08:52:32;;;;;;;21.60;16.90;;;;;;;23.72;92.58;98284.45;131016;1251;107506;-75
2023/08/06 08:55:40;;;;;;;20.70;17.60;;;;;;;23.62;92.71;98278.77;131070;1252;107662;-75
2023/08/06 08:58:48;;;;;;;19.40;17.10;;;;;;;23.63;93.03;98279.36;131079;1254;107658;-75
2023/08/06 09:01:54;;;;;;;20.10;15.50;;;;;;;23.65;92.74;98275.92;131136;1254;107247;-74
2023/08/06 09:05:04;;;;;;;17.80;15.50;;;;;;;23.66;92.74;98276.66;132298;1250;106852;-75
2023/08/06 09:08:12;;;;;;;17.40;14.60;;;;;;;23.72;92.73;98269.63;131295;1251;107514;-75
2023/08/06 09:11:23;;;;;;;17.50;15.70;;;;;;;23.86;92.48;98262.23;131257;1251;107238;-75
2023/08/06 09:14:30;;;;;;;18.50;16.50;;;;;;;23.97;92.33;98260.04;131146;1251;107233;-78
2023/08/06 09:17:36;;;;;;;16.60;14.90;;;;;;;24.08;92.06;98253.38;131188;1258;108009;-75
2023/08/06 09:20:42;;;;;;;21.00;14.80;;;;;;;24.21;92.01;98253.14;131032;1252;107534;-74
2023/08/06 09:23:48;;;;;;;15.90;14.20;;;;;;;24.34;91.29;98252.66;131084;1253;107553;-74
2023/08/06 09:26:54;;;;;;;17.30;14.60;;;;;;;24.42;91.31;98251.02;131051;1254;106628;-74
2023/08/06 09:29:59;;;;;;;16.80;15.00;;;;;;;24.62;91.13;98252.30;131154;1254;107360;-74
2023/08/06 09:33:10;;;;;;;16.60;14.70;;;;;;;24.83;91.09;98244.90;131142;1255;107335;-74
2023/08/06 09:36:17;;;;;;;15.10;13.60;;;;;;;25.01;90.81;98237.98;131015;1257;107142;-74
2023/08/06 09:39:27;;;;;;;15.80;13.40;;;;;;;25.24;90.10;98238.88;131080;1251;107615;-75
2023/08/06 09:42:32;;;;;;;14.50;13.00;;;;;;;25.57;90.26;98227.71;131268;1254;107504;-76
2023/08/06 09:45:39;;;;;;;14.60;13.10;;;;;;;25.95;89.54;98221.64;131349;1253;107567;-76
2023/08/06 09:48:47;;;;;;;14.30;12.90;;;;;;;26.14;88.23;98220.89;131118;1251;107152;-75
2023/08/06 09:51:55;;;;;;;14.00;12.60;;;;;;;26.18;87.94;98215.56;131360;1250;107407;-76
2023/08/06 09:55:02;;;;;;;13.70;12.30;;;;;;;26.21;87.71;98211.84;131609;1251;107221;-77
2023/08/06 09:58:09;;;;;;;14.80;13.10;;;;;;;26.35;87.65;98211.20;131424;1250;107414;-79
2023/08/06 10:01:17;;;;;;;14.20;12.60;;;;;;;26.55;87.55;98205.08;131139;1253;107562;-80
2023/08/06 10:04:22;;;;;;;13.90;12.20;;;;;;;26.70;86.32;98201.46;131085;1254;107897;-79
2023/08/06 10:07:30;;;;;;;12.70;11.60;;;;;;;26.73;86.37;98192.21;131139;1251;107517;-79
2023/08/06 10:10:37;;;;;;;13.40;12.10;;;;;;;26.76;86.47;98184.35;131070;1263;107533;-79
2023/08/06 10:13:43;;;;;;;14.00;12.60;;;;;;;26.80;85.75;98180.27;131070;1254;106661;-80
2023/08/06 10:16:50;;;;;;;13.80;12.50;;;;;;;26.74;85.71;98178.38;131106;1253;107249;-79
2023/08/06 10:19:57;;;;;;;14.30;12.90;;;;;;;26.66;85.62;98178.16;131250;1254;107561;-79
2023/08/06 10:23:07;;;;;;;13.70;11.90;;;;;;;26.53;85.37;98182.70;131314;1255;107709;-79
2023/08/06 10:26:15;;;;;;;12.80;11.50;;;;;;;26.43;85.71;98184.70;131969;1251;107552;-76
2023/08/06 10:29:40;;;;;;;14.10;12.70;;;;;;;26.57;85.34;98179.75;131889;1249;107226;-76
2023/08/06 10:32:50;;;;;;;14.10;12.60;;;;;;;26.75;84.92;98171.48;132462;1250;106997;-75
2023/08/06 10:36:07;;;;;;;13.70;12.40;;;;;;;26.78;84.49;98159.26;133846;1250;107539;-77
2023/08/06 10:39:15;;;;;;;12.50;11.30;;;;;;;26.74;84.54;98152.41;131662;1253;108441;-78
2023/08/06 10:42:31;;;;;;;12.10;10.90;;;;;;;26.73;84.36;98144.13;131082;1250;107625;-77
2023/08/06 10:45:39;;;;;;;13.10;11.50;;;;;;;26.78;84.14;98134.67;131099;1253;107573;-76
2023/08/06 10:48:47;;;;;;;12.70;11.40;;;;;;;26.83;84.11;98129.77;131157;1250;108083;-77
2023/08/06 10:51:53;;;;;;;12.90;11.60;;;;;;;26.90;83.53;98129.68;131105;1254;107568;-77
2023/08/06 10:54:59;;;;;;;13.20;11.90;;;;;;;26.97;82.85;98122.81;131164;1251;107517;-76
2023/08/06 10:58:04;;;;;;;13.10;11.50;;;;;;;27.03;82.99;98117.84;131102;1253;107581;-76
2023/08/06 11:01:11;;;;;;;11.70;10.50;;;;;;;27.03;82.56;98110.02;131060;1250;107536;-77
2023/08/06 11:04:17;;;;;;;14.70;10.70;;;;;;;26.92;81.76;98105.39;131154;1253;107592;-76
2023/08/06 11:07:23;;;;;;;11.40;9.80;;;;;;;26.91;81.40;98102.45;131004;1255;108097;-76
2023/08/06 11:10:29;;;;;;;11.80;9.70;;;;;;;26.90;82.02;98093.66;131027;1251;108102;-76
2023/08/06 11:13:35;;;;;;;12.10;10.90;;;;;;;26.95;81.96;98079.58;131108;1253;107572;-77
2023/08/06 11:16:45;;;;;;;12.20;11.00;;;;;;;26.97;81.99;98071.91;131092;1264;108042;-76
2023/08/06 11:19:51;;;;;;;12.60;11.40;;;;;;;27.13;82.08;98067.11;131078;1254;108617;-76
2023/08/06 11:22:57;;;;;;;13.10;10.90;;;;;;;27.27;81.16;98059.46;131077;1257;108135;-76
2023/08/06 11:26:03;;;;;;;11.20;10.10;;;;;;;27.31;80.45;98054.91;131035;1253;106669;-76
2023/08/06 11:29:08;;;;;;;10.90;9.90;;;;;;;27.29;79.68;98046.27;131087;1250;108174;-76
2023/08/06 11:32:14;;;;;;;10.60;9.60;;;;;;;27.20;79.70;98041.56;131117;1253;107288;-76
2023/08/06 11:35:20;;;;;;;11.00;9.90;;;;;;;27.03;79.36;98036.66;131075;1250;107467;-76
2023/08/06 11:38:28;;;;;;;10.20;9.00;;;;;;;26.94;79.38;98033.57;131006;1251;107374;-76
2023/08/06 11:41:34;;;;;;;9.50;8.50;;;;;;;27.06;79.21;98024.60;131058;1253;107627;-75
2023/08/06 11:44:44;;;;;;;10.10;9.20;;;;;;;27.14;79.22;97998.52;131144;1253;107506;-75
2023/08/06 11:47:53;;;;;;;10.20;9.20;;;;;;;27.22;78.98;97988.56;131123;1253;107449;-76
2023/08/06 11:50:59;;;;;;;9.40;8.20;;;;;;;27.30;77.92;97985.21;131057;1251;107366;-77
2023/08/06 11:54:07;;;;;;;8.90;8.00;;;;;;;27.21;77.66;97988.30;131104;1254;106852;-76
2023/08/06 11:57:13;;;;;;;9.30;8.50;;;;;;;27.05;77.69;97985.63;131074;1254;106680;-76
2023/08/06 12:00:21;;;;;;;9.20;8.20;;;;;;;26.93;77.38;97980.00;131167;1253;107926;-76
2023/08/06 12:03:30;;;;;;;9.10;8.30;;;;;;;26.96;77.55;97979.71;131405;1250;107320;-76
2023/08/06 12:06:44;;;;;;;9.00;7.90;;;;;;;27.13;77.15;97976.30;131279;1251;105743;-77
2023/08/06 12:09:49;;;;;;;8.00;7.20;;;;;;;27.30;76.95;97985.61;131213;1250;107553;-77
2023/08/06 12:12:56;;;;;;;8.70;7.80;;;;;;;27.34;76.44;97993.55;131261;1251;107320;-77
2023/08/06 12:16:01;;;;;;;8.50;7.70;;;;;;;27.41;76.55;98007.41;131380;1257;107481;-77
2023/08/06 12:19:07;;;;;;;9.20;7.80;;;;;;;27.54;76.96;98010.65;131488;1250;106450;-77
2023/08/06 12:22:13;;;;;;;8.50;7.70;;;;;;;27.79;77.09;98011.88;131096;1257;107354;-77
2023/08/06 12:25:19;;;;;;;8.10;7.40;;;;;;;28.05;76.48;98005.33;131875;1250;105840;-77
2023/08/06 12:28:24;;;;;;;8.30;7.60;;;;;;;28.23;76.47;98011.67;132866;1250;107487;-77
2023/08/06 12:31:29;;;;;;;8.10;7.40;;;;;;;28.38;76.09;98006.06;131370;1253;107464;-77
2023/08/06 12:34:35;;;;;;;8.40;7.60;;;;;;;28.53;75.28;97990.68;131152;1254;107598;-77
2023/08/06 12:37:41;;;;;;;7.90;6.80;;;;;;;28.63;74.44;97986.69;131754;1251;107534;-77
2023/08/06 12:40:46;;;;;;;7.40;6.70;;;;;;;28.66;74.08;97999.52;131265;1250;106115;-77
2023/08/06 12:43:51;;;;;;;7.50;6.80;;;;;;;28.71;74.08;98012.83;131849;1250;107140;-77
2023/08/06 12:46:58;;;;;;;5.80;3.70;;;;;;;28.53;72.40;98051.81;131665;1250;107589;-76
2023/08/06 12:50:03;;;;;;;3.10;2.80;;;;;;;28.09;71.48;98037.95;131554;1253;173797;-77
2023/08/06 12:53:09;;;;;;;2.60;2.10;;;;;;;27.77;71.34;98043.75;131187;1251;107554;-76
2023/08/06 12:56:15;;;;;;;2.00;1.80;;;;;;;27.60;71.08;98041.25;131298;1253;107674;-76
2023/08/06 12:59:21;;;;;;;1.70;1.60;;;;;;;27.65;71.02;98039.36;131560;1253;107508;-76
2023/08/06 13:02:29;;;;;;;1.80;1.20;;;;;;;27.88;70.70;98028.63;131539;1250;107216;-76
2023/08/06 13:05:36;;;;;;;1.40;1.30;;;;;;;28.10;69.45;98018.16;131460;1250;105786;-76
2023/08/06 13:08:41;;;;;;;2.80;1.10;;;;;;;28.30;68.81;98012.55;131340;1253;107414;-76
2023/08/06 13:11:50;;;;;;;1.20;1.10;;;;;;;28.43;69.13;98011.36;131326;1250;107521;-76
2023/08/06 13:14:57;;;;;;;2.20;1.10;;;;;;;28.59;68.15;98029.41;131075;1253;107392;-76
2023/08/06 13:18:02;;;;;;;1.70;1.40;;;;;;;28.68;67.07;98050.89;131228;1250;107243;-76
2023/08/06 13:21:43;;;;;;;1.90;1.40;;;;;;;28.76;67.27;98072.85;131318;1250;108784;-76
2023/08/06 13:25:07;;;;;;;3.70;1.20;;;;;;;28.95;66.33;98088.17;132473;1250;109175;-76
2023/08/06 13:28:13;;;;;;;1.20;1.10;;;;;;;28.88;66.25;98095.82;132297;1253;107541;-77
2023/08/06 13:31:19;;;;;;;1.40;1.30;;;;;;;28.77;66.88;98094.61;131219;1253;107472;-78
2023/08/06 13:34:28;;;;;;;1.60;1.20;;;;;;;28.66;67.14;98096.50;131463;1251;107742;-78
2023/08/06 13:37:36;;;;;;;2.10;1.30;;;;;;;28.60;67.14;98110.10;131294;1256;107142;-77
2023/08/06 13:40:58;;;;;;;2.40;0.90;;;;;;;28.39;65.51;98114.73;131554;1253;107285;-78
2023/08/06 13:44:04;;;;;;;1.10;0.80;;;;;;;27.97;65.96;98122.13;131034;1251;108115;-81
2023/08/06 13:47:10;;;;;;;1.10;0.80;;;;;;;27.64;66.86;98114.99;131355;1250;106755;-79
2023/08/06 13:50:19;;;;;;;1.00;0.90;;;;;;;27.33;66.79;98110.98;131251;1256;107375;-79
2023/08/06 13:53:25;;;;;;;0.70;0.60;;;;;;;27.01;66.33;98113.30;131818;1250;107779;-80
2023/08/06 13:56:30;;;;;;;0.70;0.70;;;;;;;26.74;66.75;98134.19;131775;1250;107228;-81
2023/08/06 13:59:36;;;;;;;0.60;0.50;;;;;;;26.64;67.28;98133.21;131168;1253;108659;-81
2023/08/06 14:02:43;;;;;;;0.90;0.50;;;;;;;26.66;66.27;98138.16;131510;1250;107401;-82
2023/08/06 14:05:49;;;;;;;1.40;0.50;;;;;;;26.55;66.48;98144.73;131527;1250;107279;-82
2023/08/06 14:08:54;;;;;;;0.80;0.40;;;;;;;26.44;66.27;98149.73;131325;1253;107374;-81